createdAt,value
2018-01-12T00:00:13.025Z,8.5
2018-01-12T00:01:15.428Z,8.5
2018-01-12T00:02:17.841Z,8.5
2018-01-12T00:03:20.549Z,8.6
2018-01-12T00:04:22.948Z,8.5
2018-01-12T00:05:25.354Z,8.5
2018-01-12T00:06:28.051Z,8.6
2018-01-12T00:07:30.753Z,8.6
2018-01-12T00:08:33.152Z,8.6
2018-01-12T00:09:35.850Z,8.7
2018-01-12T00:10:38.252Z,8.7
2018-01-12T00:11:40.677Z,8.7
2018-01-12T00:12:43.373Z,8.8
2018-01-12T00:13:45.776Z,8.8
2018-01-12T00:14:48.180Z,8.8
2018-01-12T00:15:50.600Z,8.8
2018-01-12T00:16:53.000Z,8.8
2018-01-12T00:17:55.408Z,8.8
2018-01-12T00:18:57.829Z,8.8
2018-01-12T00:20:00.575Z,8.8
2018-01-12T00:21:02.978Z,8.8
2018-01-12T00:22:05.393Z,8.9
2018-01-12T00:23:07.806Z,8.9
2018-01-12T00:24:10.500Z,8.9
2018-01-12T00:25:12.912Z,8.9
2018-01-12T00:26:15.596Z,8.9
2018-01-12T00:27:18.012Z,8.9
2018-01-12T00:28:20.710Z,8.9
2018-01-12T00:29:23.114Z,8.9
2018-01-12T00:30:25.520Z,8.9
2018-01-12T00:31:27.938Z,8.8
2018-01-12T00:32:30.346Z,8.8
2018-01-12T00:33:32.760Z,8.8
2018-01-12T00:34:35.480Z,8.8
2018-01-12T00:35:37.881Z,8.8
2018-01-12T00:36:40.865Z,8.8
2018-01-12T00:37:43.275Z,8.8
2018-01-12T00:38:45.685Z,8.8
2018-01-12T00:39:48.098Z,8.8
2018-01-12T00:40:50.499Z,8.8
2018-01-12T00:41:52.908Z,8.8
2018-01-12T00:42:55.329Z,8.8
2018-01-12T00:43:57.736Z,8.8
2018-01-12T00:45:00.724Z,8.8
2018-01-12T00:46:03.132Z,8.8
2018-01-12T00:47:05.535Z,8.7
2018-01-12T00:48:07.957Z,8.7
2018-01-12T00:49:10.366Z,8.7
2018-01-12T00:50:13.066Z,8.7
2018-01-12T00:51:15.478Z,8.7
2018-01-12T00:52:17.879Z,8.6
2018-01-12T00:53:20.293Z,8.7
2018-01-12T00:54:22.704Z,8.6
2018-01-12T00:55:25.119Z,8.6
2018-01-12T00:56:27.530Z,8.6
2018-01-12T00:57:29.945Z,8.6
2018-01-12T00:58:32.351Z,8.7
2018-01-12T00:59:34.770Z,8.6
2018-01-12T01:00:37.462Z,8.7
2018-01-12T01:01:39.876Z,8.7
2018-01-12T01:02:42.287Z,8.7
2018-01-12T01:03:44.689Z,8.6
2018-01-12T01:04:47.105Z,8.7
2018-01-12T01:05:49.516Z,8.7
2018-01-12T01:06:51.923Z,8.7
2018-01-12T01:07:54.341Z,8.7
2018-01-12T01:08:56.752Z,8.7
2018-01-12T01:09:59.164Z,8.7
2018-01-12T01:11:01.576Z,8.7
2018-01-12T01:12:03.990Z,8.7
2018-01-12T01:13:06.404Z,8.7
2018-01-12T01:14:08.816Z,8.7
2018-01-12T01:15:11.222Z,8.7
2018-01-12T01:16:13.631Z,8.7
2018-01-12T01:17:16.044Z,8.7
2018-01-12T01:18:18.459Z,8.7
2018-01-12T01:19:20.872Z,8.7
2018-01-12T01:20:23.554Z,8.7
2018-01-12T01:21:25.957Z,8.7
2018-01-12T01:22:28.365Z,8.7
2018-01-12T01:23:31.073Z,8.7
2018-01-12T01:24:33.488Z,8.7
2018-01-12T01:25:35.900Z,8.7
2018-01-12T01:26:38.883Z,8.7
2018-01-12T01:27:41.303Z,8.7
2018-01-12T01:28:43.714Z,8.7
2018-01-12T01:29:46.125Z,8.7
2018-01-12T01:30:48.540Z,8.7
2018-01-12T01:31:50.949Z,8.7
2018-01-12T01:32:53.643Z,8.7
2018-01-12T01:33:56.060Z,8.7
2018-01-12T01:34:58.463Z,8.7
2018-01-12T01:36:00.876Z,8.7
2018-01-12T01:37:03.296Z,8.7
2018-01-12T01:38:05.700Z,8.7
2018-01-12T01:39:08.118Z,8.7
2018-01-12T01:40:10.525Z,8.7
2018-01-12T01:41:13.211Z,8.7
2018-01-12T01:42:15.632Z,8.7
2018-01-12T01:43:18.044Z,8.7
2018-01-12T01:44:20.454Z,8.7
2018-01-12T01:45:23.156Z,8.8
2018-01-12T01:46:25.561Z,8.8
2018-01-12T01:47:27.972Z,8.7
2018-01-12T01:48:30.389Z,8.7
2018-01-12T01:49:32.799Z,8.7
2018-01-12T01:50:35.217Z,8.7
2018-01-12T01:51:37.607Z,8.7
2018-01-12T01:52:40.016Z,8.7
2018-01-12T01:53:42.432Z,8.7
2018-01-12T01:54:44.858Z,8.7
2018-01-12T01:55:47.554Z,8.7
2018-01-12T01:56:49.972Z,8.6
2018-01-12T01:57:52.378Z,8.6
2018-01-12T01:58:54.795Z,8.6
2018-01-12T01:59:57.495Z,8.5
2018-01-12T02:00:59.896Z,8.5
2018-01-12T02:02:02.616Z,8.5
2018-01-12T02:03:05.312Z,8.5
2018-01-12T02:04:07.717Z,8.5
2018-01-12T02:05:10.184Z,8.5
2018-01-12T02:06:12.534Z,8.5
2018-01-12T02:07:14.944Z,8.5
2018-01-12T02:08:17.360Z,8.4
2018-01-12T02:09:19.767Z,8.4
2018-01-12T02:10:22.166Z,8.4
2018-01-12T02:11:24.580Z,8.4
2018-01-12T02:12:27.289Z,8.4
2018-01-12T02:13:29.714Z,8.4
2018-01-12T02:14:32.123Z,8.4
2018-01-12T02:15:34.525Z,8.4
2018-01-12T02:16:36.940Z,8.4
2018-01-12T02:17:39.339Z,8.4
2018-01-12T02:18:42.038Z,8.5
2018-01-12T02:19:44.447Z,8.5
2018-01-12T02:20:46.863Z,8.5
2018-01-12T02:21:49.278Z,8.5
2018-01-12T02:22:51.694Z,8.5
2018-01-12T02:23:54.376Z,8.5
2018-01-12T02:24:57.118Z,8.5
2018-01-12T02:25:59.529Z,8.6
2018-01-12T02:27:01.935Z,8.6
2018-01-12T02:28:04.337Z,8.6
2018-01-12T02:29:06.743Z,8.6
2018-01-12T02:30:09.145Z,8.6
2018-01-12T02:31:11.560Z,8.6
2018-01-12T02:32:13.959Z,8.6
2018-01-12T02:33:16.371Z,8.6
2018-01-12T02:34:18.781Z,8.7
2018-01-12T02:35:21.191Z,8.6
2018-01-12T02:36:24.180Z,8.7
2018-01-12T02:37:26.591Z,8.7
2018-01-12T02:38:28.994Z,8.7
2018-01-12T02:39:31.417Z,8.7
2018-01-12T02:40:34.107Z,8.7
2018-01-12T02:41:36.511Z,8.7
2018-01-12T02:42:38.919Z,8.7
2018-01-12T02:43:41.334Z,8.7
2018-01-12T02:44:43.740Z,8.7
2018-01-12T02:45:46.150Z,8.7
2018-01-12T02:46:48.568Z,8.7
2018-01-12T02:47:51.263Z,8.7
2018-01-12T02:48:53.950Z,8.7
2018-01-12T02:49:56.644Z,8.7
2018-01-12T02:50:59.061Z,8.7
2018-01-12T02:52:01.504Z,8.7
2018-01-12T02:53:03.910Z,8.7
2018-01-12T02:54:06.319Z,8.7
2018-01-12T02:55:09.015Z,8.7
2018-01-12T02:56:11.725Z,8.7
2018-01-12T02:57:14.127Z,8.7
2018-01-12T02:58:16.814Z,8.7
2018-01-12T02:59:19.508Z,8.7
2018-01-12T03:00:21.923Z,8.7
2018-01-12T03:01:24.623Z,8.7
2018-01-12T03:02:27.032Z,8.7
2018-01-12T03:03:29.426Z,8.7
2018-01-12T03:04:31.840Z,8.7
2018-01-12T03:05:34.253Z,8.7
2018-01-12T03:06:36.659Z,8.7
2018-01-12T03:07:39.074Z,8.7
2018-01-12T03:08:41.487Z,8.7
2018-01-12T03:09:43.898Z,8.7
2018-01-12T03:10:46.314Z,8.7
2018-01-12T03:11:48.722Z,8.7
2018-01-12T03:12:51.133Z,8.7
2018-01-12T03:13:53.543Z,8.7
2018-01-12T03:14:55.962Z,8.7
2018-01-12T03:15:58.374Z,8.7
2018-01-12T03:17:00.786Z,8.7
2018-01-12T03:18:03.198Z,8.7
2018-01-12T03:19:05.610Z,8.7
2018-01-12T03:20:08.015Z,8.7
2018-01-12T03:21:10.426Z,8.7
2018-01-12T03:22:12.856Z,8.7
2018-01-12T03:23:15.260Z,8.7
2018-01-12T03:24:17.962Z,8.7
2018-01-12T03:25:20.369Z,8.8
2018-01-12T03:26:22.780Z,8.7
2018-01-12T03:27:25.192Z,8.7
2018-01-12T03:28:27.888Z,8.7
2018-01-12T03:29:30.291Z,8.7
2018-01-12T03:30:32.709Z,8.8
2018-01-12T03:31:35.122Z,8.7
2018-01-12T03:32:37.522Z,8.8
2018-01-12T03:33:40.206Z,8.8
2018-01-12T03:34:42.612Z,8.8
2018-01-12T03:35:45.025Z,8.8
2018-01-12T03:36:47.732Z,8.8
2018-01-12T03:37:50.130Z,8.8
2018-01-12T03:38:52.552Z,8.8
2018-01-12T03:39:54.955Z,8.8
2018-01-12T03:40:57.371Z,8.8
2018-01-12T03:41:59.785Z,8.8
2018-01-12T03:43:02.783Z,8.8
2018-01-12T03:44:05.185Z,8.8
2018-01-12T03:45:07.604Z,8.8
2018-01-12T03:46:10.577Z,8.8
2018-01-12T03:47:12.994Z,8.8
2018-01-12T03:48:15.402Z,8.8
2018-01-12T03:49:17.813Z,8.7
2018-01-12T03:50:20.509Z,8.7
2018-01-12T03:51:22.916Z,8.7
2018-01-12T03:52:25.329Z,8.7
2018-01-12T03:53:28.020Z,8.7
2018-01-12T03:54:30.428Z,8.7
2018-01-12T03:55:33.426Z,8.7
2018-01-12T03:56:35.833Z,8.7
2018-01-12T03:57:38.234Z,8.7
2018-01-12T03:58:40.643Z,8.6
2018-01-12T03:59:43.059Z,8.6
2018-01-12T04:00:45.773Z,8.6
2018-01-12T04:01:48.186Z,8.6
2018-01-12T04:02:50.591Z,8.6
2018-01-12T04:03:52.995Z,8.6
2018-01-12T04:04:55.412Z,8.6
2018-01-12T04:05:58.112Z,8.6
2018-01-12T04:07:00.809Z,8.6
2018-01-12T04:08:03.499Z,8.6
2018-01-12T04:09:05.902Z,8.7
2018-01-12T04:10:08.608Z,8.7
2018-01-12T04:11:11.305Z,8.7
2018-01-12T04:12:13.713Z,8.7
2018-01-12T04:13:16.118Z,8.7
2018-01-12T04:14:18.533Z,8.7
2018-01-12T04:15:20.941Z,8.7
2018-01-12T04:16:23.350Z,8.7
2018-01-12T04:17:25.752Z,8.7
2018-01-12T04:18:28.167Z,8.6
2018-01-12T04:19:30.575Z,8.6
2018-01-12T04:20:33.323Z,8.6
2018-01-12T04:21:35.724Z,8.6
2018-01-12T04:22:38.133Z,8.6
2018-01-12T04:23:40.550Z,8.6
2018-01-12T04:24:42.968Z,8.6
2018-01-12T04:25:45.374Z,8.6
2018-01-12T04:26:47.778Z,8.6
2018-01-12T04:27:50.196Z,8.6
2018-01-12T04:28:52.618Z,8.6
2018-01-12T04:29:55.019Z,8.6
2018-01-12T04:30:57.439Z,8.6
2018-01-12T04:31:59.850Z,8.6
2018-01-12T04:33:02.263Z,8.6
2018-01-12T04:34:04.675Z,8.5
2018-01-12T04:35:07.089Z,8.5
2018-01-12T04:36:09.490Z,8.5
2018-01-12T04:37:11.908Z,8.5
2018-01-12T04:38:14.313Z,8.4
2018-01-12T04:39:16.726Z,8.5
2018-01-12T04:40:19.143Z,8.5
2018-01-12T04:41:21.548Z,8.5
2018-01-12T04:42:24.249Z,8.5
2018-01-12T04:43:26.660Z,8.4
2018-01-12T04:44:29.071Z,8.4
2018-01-12T04:45:31.469Z,8.3
2018-01-12T04:46:33.881Z,8.3
2018-01-12T04:47:36.295Z,8.3
2018-01-12T04:48:38.705Z,8.2
2018-01-12T04:49:41.401Z,8.2
2018-01-12T04:50:43.811Z,8.2
2018-01-12T04:51:46.214Z,8.2
2018-01-12T04:52:48.919Z,8.2
2018-01-12T04:53:51.329Z,8.2
2018-01-12T04:54:53.731Z,8.2
2018-01-12T04:55:56.138Z,8.2
2018-01-12T04:56:58.541Z,8.2
2018-01-12T04:58:00.959Z,8.2
2018-01-12T04:59:03.369Z,8.2
2018-01-12T05:00:06.063Z,8.2
2018-01-12T05:01:08.473Z,8.2
2018-01-12T05:02:10.894Z,8.2
2018-01-12T05:03:13.584Z,8.2
2018-01-12T05:04:15.988Z,8.2
2018-01-12T05:05:18.404Z,8.2
2018-01-12T05:06:20.814Z,8.2
2018-01-12T05:07:23.225Z,8.2
2018-01-12T05:08:25.637Z,8.2
2018-01-12T05:09:28.036Z,8.2
2018-01-12T05:10:30.444Z,8.2
2018-01-12T05:11:32.851Z,8.2
2018-01-12T05:12:35.255Z,8.2
2018-01-12T05:13:37.660Z,8.2
2018-01-12T05:14:40.078Z,8.2
2018-01-12T05:15:42.493Z,8.2
2018-01-12T05:16:44.897Z,8.2
2018-01-12T05:17:47.300Z,8.2
2018-01-12T05:18:49.717Z,8.2
2018-01-12T05:19:52.129Z,8.2
2018-01-12T05:20:54.545Z,8.2
2018-01-12T05:21:56.996Z,8.2
2018-01-12T05:22:59.360Z,8.2
2018-01-12T05:24:01.781Z,8.2
2018-01-12T05:25:04.197Z,8.1
2018-01-12T05:26:06.593Z,8.2
2018-01-12T05:27:09.004Z,8.2
2018-01-12T05:28:11.419Z,8.1
2018-01-12T05:29:13.831Z,8.2
2018-01-12T05:30:16.235Z,8.2
2018-01-12T05:31:18.932Z,8.2
2018-01-12T05:32:21.653Z,8.2
2018-01-12T05:33:24.070Z,8.2
2018-01-12T05:34:26.482Z,8.2
2018-01-12T05:35:28.877Z,8.3
2018-01-12T05:36:31.289Z,8.3
2018-01-12T05:37:33.696Z,8.3
2018-01-12T05:38:36.390Z,8.2
2018-01-12T05:39:38.797Z,8.3
2018-01-12T05:40:41.208Z,8.3
2018-01-12T05:41:43.622Z,8.3
2018-01-12T05:42:46.037Z,8.3
2018-01-12T05:43:48.447Z,8.2
2018-01-12T05:44:51.137Z,8.2
2018-01-12T05:45:53.543Z,8.3
2018-01-12T05:46:56.243Z,8.2
2018-01-12T05:47:58.647Z,8.2
2018-01-12T05:49:01.055Z,8.2
2018-01-12T05:50:03.759Z,8.2
2018-01-12T05:51:06.160Z,8.2
2018-01-12T05:52:08.581Z,8.1
2018-01-12T05:53:10.988Z,8.2
2018-01-12T05:54:13.394Z,8.1
2018-01-12T05:55:15.804Z,8.1
2018-01-12T05:56:18.512Z,8.1
2018-01-12T05:57:21.208Z,8.1
2018-01-12T05:58:23.632Z,8.1
2018-01-12T05:59:26.359Z,8.1
2018-01-12T06:00:28.751Z,8.1
2018-01-12T06:01:31.171Z,8.1
2018-01-12T06:02:33.586Z,8.1
2018-01-12T06:03:35.990Z,8.1
2018-01-12T06:04:38.683Z,8.1
2018-01-12T06:05:41.100Z,8.1
2018-01-12T06:06:43.793Z,8.1
2018-01-12T06:07:46.485Z,8.1
2018-01-12T06:08:48.896Z,8.1
2018-01-12T06:09:51.297Z,8.1
2018-01-12T06:10:53.718Z,8.1
2018-01-12T06:11:56.410Z,8.1
2018-01-12T06:12:58.824Z,8.1
2018-01-12T06:14:01.221Z,8.1
2018-01-12T06:15:03.912Z,8.1
2018-01-12T06:16:06.333Z,8.1
2018-01-12T06:17:08.740Z,8.1
2018-01-12T06:18:11.150Z,8.1
2018-01-12T06:19:13.563Z,8.1
2018-01-12T06:20:15.964Z,8
2018-01-12T06:21:18.661Z,8
2018-01-12T06:22:21.070Z,8
2018-01-12T06:23:23.474Z,8
2018-01-12T06:24:25.886Z,8
2018-01-12T06:25:28.307Z,8
2018-01-12T06:26:30.712Z,8
2018-01-12T06:27:33.121Z,8
2018-01-12T06:28:35.535Z,8
2018-01-12T06:29:37.940Z,8
2018-01-12T06:30:40.639Z,8
2018-01-12T06:31:43.048Z,8
2018-01-12T06:32:45.447Z,8
2018-01-12T06:33:47.861Z,8
2018-01-12T06:34:50.262Z,8
2018-01-12T06:35:52.670Z,8
2018-01-12T06:36:55.085Z,8
2018-01-12T06:37:57.500Z,8
2018-01-12T06:38:59.911Z,8
2018-01-12T06:40:02.329Z,8
2018-01-12T06:41:04.731Z,8
2018-01-12T06:42:07.136Z,8
2018-01-12T06:43:09.547Z,8
2018-01-12T06:44:11.955Z,8
2018-01-12T06:45:14.376Z,8
2018-01-12T06:46:16.780Z,8
2018-01-12T06:47:19.191Z,8
2018-01-12T06:48:21.609Z,8
2018-01-12T06:49:24.573Z,8
2018-01-12T06:50:26.991Z,8
2018-01-12T06:51:29.397Z,8
2018-01-12T06:52:31.803Z,8
2018-01-12T06:53:34.267Z,8
2018-01-12T06:54:36.620Z,8
2018-01-12T06:55:39.022Z,8
2018-01-12T06:56:41.438Z,8
2018-01-12T06:57:43.835Z,7.9
2018-01-12T06:58:46.254Z,8
2018-01-12T06:59:48.663Z,8
2018-01-12T07:00:51.350Z,7.9
2018-01-12T07:01:53.759Z,7.9
2018-01-12T07:02:56.165Z,7.9
2018-01-12T07:03:58.574Z,7.9
2018-01-12T07:05:01.262Z,7.9
2018-01-12T07:06:03.665Z,7.9
2018-01-12T07:07:06.075Z,8
2018-01-12T07:08:08.502Z,7.9
2018-01-12T07:09:11.505Z,7.9
2018-01-12T07:10:13.920Z,7.9
2018-01-12T07:11:16.323Z,7.9
2018-01-12T07:12:18.744Z,8
2018-01-12T07:13:21.141Z,8
2018-01-12T07:14:23.554Z,7.9
2018-01-12T07:15:26.251Z,8
2018-01-12T07:16:28.935Z,8
2018-01-12T07:17:31.344Z,8
2018-01-12T07:18:33.750Z,8
2018-01-12T07:19:36.152Z,8
2018-01-12T07:20:38.564Z,8
2018-01-12T07:21:41.254Z,8.1
2018-01-12T07:22:43.663Z,8
2018-01-12T07:23:46.350Z,8
2018-01-12T07:24:48.764Z,8
2018-01-12T07:25:51.173Z,8
2018-01-12T07:26:53.583Z,8
2018-01-12T07:27:55.988Z,8
2018-01-12T07:28:58.399Z,8
2018-01-12T07:30:00.802Z,8
2018-01-12T07:31:03.218Z,8
2018-01-12T07:32:05.617Z,8
2018-01-12T07:33:08.033Z,8
2018-01-12T07:34:10.456Z,7.9
2018-01-12T07:35:12.858Z,8
2018-01-12T07:36:15.264Z,8
2018-01-12T07:37:17.673Z,8
2018-01-12T07:38:20.083Z,8
2018-01-12T07:39:22.501Z,8
2018-01-12T07:40:24.911Z,8
2018-01-12T07:41:27.305Z,8
2018-01-12T07:42:29.718Z,8
2018-01-12T07:43:32.403Z,8
2018-01-12T07:44:34.808Z,8
2018-01-12T07:45:37.216Z,8
2018-01-12T07:46:39.642Z,8
2018-01-12T07:47:42.050Z,8
2018-01-12T07:48:44.450Z,8
2018-01-12T07:49:46.858Z,8
2018-01-12T07:50:49.266Z,8
2018-01-12T07:51:51.956Z,8.1
2018-01-12T07:52:54.364Z,8.1
2018-01-12T07:53:56.764Z,8.1
2018-01-12T07:54:59.174Z,8.1
2018-01-12T07:56:01.594Z,8.1
2018-01-12T07:57:04.571Z,8.1
2018-01-12T07:58:06.973Z,8.1
2018-01-12T07:59:09.378Z,8.1
2018-01-12T08:00:11.782Z,8.2
2018-01-12T08:01:14.202Z,8.1
2018-01-12T08:02:16.614Z,8.1
2018-01-12T08:03:19.015Z,8.2
2018-01-12T08:04:21.434Z,8.2
2018-01-12T08:05:23.843Z,8.2
2018-01-12T08:06:26.536Z,8.2
2018-01-12T08:07:29.241Z,8.2
2018-01-12T08:08:31.653Z,8.2
2018-01-12T08:09:34.354Z,8.2
2018-01-12T08:10:36.763Z,8.2
2018-01-12T08:11:39.174Z,8.2
2018-01-12T08:12:41.566Z,8.2
2018-01-12T08:13:43.979Z,8.2
2018-01-12T08:14:46.394Z,8.2
2018-01-12T08:15:48.811Z,8.1
2018-01-12T08:16:51.515Z,8.2
2018-01-12T08:17:54.202Z,8.2
2018-01-12T08:18:56.612Z,8.2
2018-01-12T08:19:59.032Z,8.1
2018-01-12T08:21:02.000Z,8.2
2018-01-12T08:22:04.410Z,8.2
2018-01-12T08:23:06.814Z,8.1
2018-01-12T08:24:09.240Z,8.1
2018-01-12T08:25:11.644Z,8.1
2018-01-12T08:26:14.350Z,8.1
2018-01-12T08:27:16.750Z,8.1
2018-01-12T08:28:19.168Z,8.1
2018-01-12T08:29:21.574Z,8.1
2018-01-12T08:30:23.987Z,8
2018-01-12T08:31:26.391Z,8.1
2018-01-12T08:32:28.800Z,8
2018-01-12T08:33:31.212Z,8
2018-01-12T08:34:33.624Z,8
2018-01-12T08:35:36.024Z,8
2018-01-12T08:36:38.428Z,8
2018-01-12T08:37:40.833Z,8
2018-01-12T08:38:43.252Z,8
2018-01-12T08:39:45.666Z,8
2018-01-12T08:40:48.066Z,8
2018-01-12T08:41:50.758Z,8
2018-01-12T08:42:53.166Z,8
2018-01-12T08:43:55.577Z,8
2018-01-12T08:44:57.984Z,8
2018-01-12T08:46:00.710Z,8
2018-01-12T08:47:03.401Z,8
2018-01-12T08:48:06.077Z,8
2018-01-12T08:49:09.080Z,8
2018-01-12T08:50:11.479Z,8
2018-01-12T08:51:13.896Z,8
2018-01-12T08:52:16.306Z,8
2018-01-12T08:53:18.712Z,8
2018-01-12T08:54:21.407Z,8
2018-01-12T08:55:23.826Z,8
2018-01-12T08:56:26.237Z,8
2018-01-12T08:57:28.647Z,8
2018-01-12T08:58:31.061Z,8
2018-01-12T08:59:33.473Z,8
2018-01-12T09:00:35.898Z,8
2018-01-12T09:01:38.306Z,8
2018-01-12T09:02:40.703Z,8
2018-01-12T09:03:43.402Z,8
2018-01-12T09:04:45.806Z,7.9
2018-01-12T09:05:48.207Z,7.9
2018-01-12T09:06:50.624Z,7.9
2018-01-12T09:07:53.011Z,7.9
2018-01-12T09:08:55.422Z,7.9
2018-01-12T09:09:57.845Z,7.9
2018-01-12T09:11:00.250Z,7.9
2018-01-12T09:12:02.648Z,7.9
2018-01-12T09:13:05.054Z,8
2018-01-12T09:14:07.469Z,7.9
2018-01-12T09:15:09.874Z,8
2018-01-12T09:16:12.276Z,8
2018-01-12T09:17:14.687Z,7.9
2018-01-12T09:18:17.093Z,8
2018-01-12T09:19:19.792Z,8
2018-01-12T09:20:22.203Z,8
2018-01-12T09:21:24.611Z,8
2018-01-12T09:22:27.295Z,8
2018-01-12T09:23:29.717Z,8
2018-01-12T09:24:32.121Z,8
2018-01-12T09:25:34.551Z,8
2018-01-12T09:26:36.935Z,8
2018-01-12T09:27:39.344Z,8
2018-01-12T09:28:41.763Z,7.9
2018-01-12T09:29:44.172Z,7.9
2018-01-12T09:30:46.580Z,7.9
2018-01-12T09:31:48.989Z,7.9
2018-01-12T09:32:51.396Z,7.9
2018-01-12T09:33:53.816Z,7.9
2018-01-12T09:34:56.507Z,7.9
2018-01-12T09:35:58.905Z,7.9
2018-01-12T09:37:01.312Z,7.9
2018-01-12T09:38:03.726Z,7.9
2018-01-12T09:39:06.427Z,7.9
2018-01-12T09:40:08.837Z,7.9
2018-01-12T09:41:11.240Z,7.9
2018-01-12T09:42:13.645Z,8
2018-01-12T09:43:16.049Z,7.9
2018-01-12T09:44:18.461Z,8
2018-01-12T09:45:20.869Z,8
2018-01-12T09:46:23.285Z,8
2018-01-12T09:47:25.684Z,8
2018-01-12T09:48:28.104Z,8
2018-01-12T09:49:30.511Z,8
2018-01-12T09:50:33.208Z,8
2018-01-12T09:51:35.609Z,8.1
2018-01-12T09:52:38.020Z,8.1
2018-01-12T09:53:40.421Z,8.1
2018-01-12T09:54:42.839Z,8.1
2018-01-12T09:55:45.248Z,8.1
2018-01-12T09:56:47.661Z,8.1
2018-01-12T09:57:50.066Z,8.1
2018-01-12T09:58:52.486Z,8.1
2018-01-12T09:59:55.171Z,8.1
2018-01-12T10:00:57.587Z,8.1
2018-01-12T10:01:59.992Z,8.1
2018-01-12T10:03:02.407Z,8.1
2018-01-12T10:04:04.818Z,8.1
2018-01-12T10:05:07.223Z,8.1
2018-01-12T10:06:09.626Z,8.1
2018-01-12T10:07:12.033Z,8.1
2018-01-12T10:08:14.437Z,8.1
2018-01-12T10:09:16.849Z,8.1
2018-01-12T10:10:19.257Z,8.1
2018-01-12T10:11:21.659Z,8.1
2018-01-12T10:12:24.072Z,8.1
2018-01-12T10:13:26.478Z,8.1
2018-01-12T10:14:28.893Z,8.1
2018-01-12T10:15:31.302Z,8.1
2018-01-12T10:16:33.707Z,8
2018-01-12T10:17:36.122Z,8.1
2018-01-12T10:18:38.531Z,8.1
2018-01-12T10:19:40.934Z,8.1
2018-01-12T10:20:43.347Z,8.1
2018-01-12T10:21:45.760Z,8.1
2018-01-12T10:22:48.168Z,8
2018-01-12T10:23:50.572Z,8
2018-01-12T10:24:52.974Z,8
2018-01-12T10:25:55.383Z,8
2018-01-12T10:26:58.081Z,8
2018-01-12T10:28:00.484Z,8
2018-01-12T10:29:02.897Z,8
2018-01-12T10:30:05.302Z,8
2018-01-12T10:31:07.997Z,8
2018-01-12T10:32:10.413Z,7.9
2018-01-12T10:33:12.828Z,7.9
2018-01-12T10:34:15.518Z,7.9
2018-01-12T10:35:17.937Z,7.9
2018-01-12T10:36:20.347Z,7.9
2018-01-12T10:37:22.760Z,7.9
2018-01-12T10:38:25.171Z,7.9
2018-01-12T10:39:27.580Z,7.9
2018-01-12T10:40:29.991Z,7.9
2018-01-12T10:41:32.405Z,8
2018-01-12T10:42:35.375Z,8
2018-01-12T10:43:37.783Z,8
2018-01-12T10:44:40.183Z,8
2018-01-12T10:45:42.592Z,8
2018-01-12T10:46:45.006Z,8
2018-01-12T10:47:47.408Z,8.1
2018-01-12T10:48:49.819Z,8
2018-01-12T10:49:52.216Z,8
2018-01-12T10:50:54.898Z,8
2018-01-12T10:51:57.318Z,8.1
2018-01-12T10:52:59.727Z,8.1
2018-01-12T10:54:02.124Z,8.1
2018-01-12T10:55:04.534Z,8.1
2018-01-12T10:56:06.936Z,8.1
2018-01-12T10:57:09.630Z,8.1
2018-01-12T10:58:12.046Z,8.1
2018-01-12T10:59:14.444Z,8.1
2018-01-12T11:00:16.854Z,8.1
2018-01-12T11:01:19.278Z,8.1
2018-01-12T11:02:22.638Z,8.1
2018-01-12T11:03:25.282Z,8.1
2018-01-12T11:04:27.689Z,8.1
2018-01-12T11:05:30.091Z,8.1
2018-01-12T11:06:32.504Z,8.1
2018-01-12T11:07:35.198Z,8.1
2018-01-12T11:08:37.595Z,8.1
2018-01-12T11:09:40.004Z,8.1
2018-01-12T11:10:42.426Z,8.1
2018-01-12T11:11:44.837Z,8.1
2018-01-12T11:12:47.245Z,8.1
2018-01-12T11:13:49.658Z,8.2
2018-01-12T11:14:52.075Z,8.1
2018-01-12T11:15:54.762Z,8.1
2018-01-12T11:16:57.182Z,8.2
2018-01-12T11:17:59.575Z,8.2
2018-01-12T11:19:01.984Z,8.2
2018-01-12T11:20:04.407Z,8.2
2018-01-12T11:21:07.104Z,8.2
2018-01-12T11:22:09.515Z,8.2
2018-01-12T11:23:11.927Z,8.2
2018-01-12T11:24:14.327Z,8.2
2018-01-12T11:25:16.748Z,8.2
2018-01-12T11:26:19.159Z,8.3
2018-01-12T11:27:21.563Z,8.2
2018-01-12T11:28:23.973Z,8.2
2018-01-12T11:29:26.388Z,8.3
2018-01-12T11:30:28.792Z,8.3
2018-01-12T11:31:31.208Z,8.3
2018-01-12T11:32:33.606Z,8.4
2018-01-12T11:33:36.016Z,8.4
2018-01-12T11:34:38.724Z,8.4
2018-01-12T11:35:41.127Z,8.4
2018-01-12T11:36:43.531Z,8.4
2018-01-12T11:37:45.950Z,8.4
2018-01-12T11:38:48.635Z,8.4
2018-01-12T11:39:51.043Z,8.4
2018-01-12T11:40:53.741Z,8.4
2018-01-12T11:41:56.162Z,8.5
2018-01-12T11:42:58.567Z,8.5
2018-01-12T11:44:00.977Z,8.5
2018-01-12T11:45:03.386Z,8.5
2018-01-12T11:46:05.794Z,8.5
2018-01-12T11:47:08.202Z,8.6
2018-01-12T11:48:10.615Z,8.5
2018-01-12T11:49:13.057Z,8.6
2018-01-12T11:50:15.423Z,8.5
2018-01-12T11:51:17.850Z,8.5
2018-01-12T11:52:20.257Z,8.5
2018-01-12T11:53:22.668Z,8.5
2018-01-12T11:54:25.072Z,8.5
2018-01-12T11:55:27.478Z,8.5
2018-01-12T11:56:30.189Z,8.5
2018-01-12T11:57:32.874Z,8.5
2018-01-12T11:58:35.273Z,8.5
2018-01-12T11:59:37.684Z,8.5
2018-01-12T12:00:40.096Z,8.5
2018-01-12T12:01:42.508Z,8.5
2018-01-12T12:02:44.918Z,8.5
2018-01-12T12:03:47.317Z,8.5
2018-01-12T12:04:49.732Z,8.5
2018-01-12T12:05:52.153Z,8.5
2018-01-12T12:06:54.559Z,8.5
2018-01-12T12:07:56.974Z,8.5
2018-01-12T12:08:59.382Z,8.5
2018-01-12T12:10:01.797Z,8.4
2018-01-12T12:11:04.200Z,8.5
2018-01-12T12:12:06.611Z,8.5
2018-01-12T12:13:09.009Z,8.4
2018-01-12T12:14:11.419Z,8.4
2018-01-12T12:15:13.834Z,8.5
2018-01-12T12:16:16.808Z,8.5
2018-01-12T12:17:19.218Z,8.4
2018-01-12T12:18:21.634Z,8.5
2018-01-12T12:19:24.043Z,8.4
2018-01-12T12:20:26.461Z,8.4
2018-01-12T12:21:29.165Z,8.5
2018-01-12T12:22:31.560Z,8.5
2018-01-12T12:23:33.979Z,8.5
2018-01-12T12:24:36.391Z,8.5
2018-01-12T12:25:38.794Z,8.5
2018-01-12T12:26:41.216Z,8.6
2018-01-12T12:27:43.613Z,8.5
2018-01-12T12:28:46.024Z,8.5
2018-01-12T12:29:48.438Z,8.6
2018-01-12T12:30:50.839Z,8.6
2018-01-12T12:31:53.250Z,8.6
2018-01-12T12:32:55.669Z,8.6
2018-01-12T12:33:58.066Z,8.6
2018-01-12T12:35:00.506Z,8.6
2018-01-12T12:36:02.894Z,8.6
2018-01-12T12:37:05.304Z,8.6
2018-01-12T12:38:07.985Z,8.6
2018-01-12T12:39:10.411Z,8.7
2018-01-12T12:40:12.815Z,8.7
2018-01-12T12:41:15.219Z,8.7
2018-01-12T12:42:17.637Z,8.7
2018-01-12T12:43:20.042Z,8.7
2018-01-12T12:44:22.448Z,8.7
2018-01-12T12:45:24.869Z,8.7
2018-01-12T12:46:27.274Z,8.7
2018-01-12T12:47:29.977Z,8.7
2018-01-12T12:48:32.392Z,8.7
2018-01-12T12:49:34.807Z,8.7
2018-01-12T12:50:37.217Z,8.7
2018-01-12T12:51:39.629Z,8.6
2018-01-12T12:52:42.035Z,8.6
2018-01-12T12:53:44.452Z,8.6
2018-01-12T12:54:46.850Z,8.6
2018-01-12T12:55:49.258Z,8.6
2018-01-12T12:56:51.660Z,8.6
2018-01-12T12:57:54.075Z,8.6
2018-01-12T12:58:56.776Z,8.6
2018-01-12T12:59:59.183Z,8.5
2018-01-12T13:01:01.601Z,8.5
2018-01-12T13:02:04.016Z,8.5
2018-01-12T13:03:06.433Z,8.5
2018-01-12T13:04:08.853Z,8.4
2018-01-12T13:05:11.532Z,8.4
2018-01-12T13:06:14.232Z,8.3
2018-01-12T13:07:17.219Z,8.4
2018-01-12T13:08:19.622Z,8.3
2018-01-12T13:09:22.033Z,8.4
2018-01-12T13:10:24.455Z,8.3
2018-01-12T13:11:26.858Z,8.4
2018-01-12T13:12:29.281Z,8.3
2018-01-12T13:13:31.687Z,8.4
2018-01-12T13:14:34.098Z,8.4
2018-01-12T13:15:36.506Z,8.4
2018-01-12T13:16:38.922Z,8.4
2018-01-12T13:17:41.328Z,8.4
2018-01-12T13:18:43.745Z,8.3
2018-01-12T13:19:46.714Z,8.4
2018-01-12T13:20:49.128Z,8.3
2018-01-12T13:21:51.535Z,8.4
2018-01-12T13:22:53.951Z,8.3
2018-01-12T13:23:56.351Z,8.3
2018-01-12T13:24:58.759Z,8.3
2018-01-12T13:26:01.173Z,8.3
2018-01-12T13:27:03.577Z,8.3
2018-01-12T13:28:05.983Z,8.3
2018-01-12T13:29:08.403Z,8.3
2018-01-12T13:30:10.805Z,8.3
2018-01-12T13:31:13.230Z,8.3
2018-01-12T13:32:15.640Z,8.3
2018-01-12T13:33:18.047Z,8.3
2018-01-12T13:34:20.454Z,8.3
2018-01-12T13:35:22.867Z,8.3
2018-01-12T13:36:25.277Z,8.3
2018-01-12T13:37:27.688Z,8.3
2018-01-12T13:38:30.107Z,8.3
2018-01-12T13:39:32.518Z,8.3
2018-01-12T13:40:34.929Z,8.3
2018-01-12T13:41:37.340Z,8.3
2018-01-12T13:42:39.746Z,8.3
2018-01-12T13:43:42.155Z,8.3
2018-01-12T13:44:44.570Z,8.3
2018-01-12T13:45:46.964Z,8.3
2018-01-12T13:46:49.376Z,8.3
2018-01-12T13:47:52.078Z,8.3
2018-01-12T13:48:54.487Z,8.3
2018-01-12T13:49:56.896Z,8.4
2018-01-12T13:50:59.315Z,8.4
2018-01-12T13:52:01.726Z,8.3
2018-01-12T13:53:04.442Z,8.4
2018-01-12T13:54:06.854Z,8.4
2018-01-12T13:55:09.251Z,8.4
2018-01-12T13:56:11.659Z,8.4
2018-01-12T13:57:14.084Z,8.4
2018-01-12T13:58:16.498Z,8.4
2018-01-12T13:59:18.905Z,8.3
2018-01-12T14:00:21.638Z,8.3
2018-01-12T14:01:24.040Z,8.3
2018-01-12T14:02:26.460Z,8.3
2018-01-12T14:03:28.869Z,8.3
2018-01-12T14:04:31.265Z,8.3
2018-01-12T14:05:33.673Z,8.3
2018-01-12T14:06:36.074Z,8.3
2018-01-12T14:07:38.487Z,8.3
2018-01-12T14:08:41.189Z,8.3
2018-01-12T14:09:43.605Z,8.3
2018-01-12T14:10:46.011Z,8.2
2018-01-12T14:11:48.434Z,8.2
2018-01-12T14:12:50.843Z,8.2
2018-01-12T14:13:53.253Z,8.2
2018-01-12T14:14:55.667Z,8.2
2018-01-12T14:15:58.066Z,8.2
2018-01-12T14:17:00.477Z,8.2
2018-01-12T14:18:02.892Z,8.2
2018-01-12T14:19:05.571Z,8.2
2018-01-12T14:20:08.262Z,8.2
2018-01-12T14:21:10.675Z,8.2
2018-01-12T14:22:13.078Z,8.2
2018-01-12T14:23:15.493Z,8.2
2018-01-12T14:24:17.905Z,8.2
2018-01-12T14:25:20.593Z,8.2
2018-01-12T14:26:23.007Z,8.2
2018-01-12T14:27:25.422Z,8.2
2018-01-12T14:28:27.824Z,8.2
2018-01-12T14:29:30.527Z,8.1
2018-01-12T14:30:32.936Z,8.2